createdAt,value
2022-10-23T00:00:32.516Z,19.18
2022-10-23T00:02:59.790Z,19.17
2022-10-23T00:05:27.809Z,19.18
2022-10-23T00:07:56.245Z,19.13
2022-10-23T00:10:23.537Z,19.15
2022-10-23T00:12:50.863Z,19.11
2022-10-23T00:15:19.751Z,19.08
2022-10-23T00:17:46.298Z,19.15
2022-10-23T00:20:14.036Z,19.14
2022-10-23T00:22:40.722Z,19.10
2022-10-23T00:25:08.844Z,19.11
2022-10-23T00:27:35.754Z,19.08
2022-10-23T00:30:03.900Z,19.09
2022-10-23T00:35:01.954Z,19.09
2022-10-23T00:37:28.498Z,19.06
2022-10-23T00:39:55.052Z,19.09
2022-10-23T00:42:23.332Z,19.06
2022-10-23T00:44:49.805Z,19.03
2022-10-23T00:47:17.027Z,18.91
2022-10-23T00:49:43.559Z,19.08
2022-10-23T00:52:12.158Z,18.99
2022-10-23T00:54:41.208Z,18.99
2022-10-23T00:57:12.597Z,19.08
2022-10-23T00:59:41.281Z,19.13
2022-10-23T01:02:08.084Z,19.12
2022-10-23T01:04:35.043Z,18.98
2022-10-23T01:07:15.541Z,18.89
2022-10-23T01:10:22.322Z,19.05
2022-10-23T01:13:10.024Z,19.03
2022-10-23T01:15:44.658Z,18.99
2022-10-23T01:18:24.977Z,19.04
2022-10-23T01:21:02.630Z,19.04
2022-10-23T01:23:44.176Z,19.02
2022-10-23T01:26:35.253Z,19.12
2022-10-23T01:29:09.015Z,19.01
2022-10-23T01:31:43.905Z,18.99
2022-10-23T01:34:14.749Z,18.97
2022-10-23T01:36:43.440Z,19.01
2022-10-23T01:39:14.969Z,18.90
2022-10-23T01:41:44.081Z,18.98
2022-10-23T01:44:22.271Z,18.97
2022-10-23T01:46:50.311Z,18.92
2022-10-23T01:49:17.807Z,18.93
2022-10-23T01:51:47.109Z,18.90
2022-10-23T01:54:14.793Z,18.89
2022-10-23T01:56:43.212Z,18.92
2022-10-23T01:59:13.597Z,18.87
2022-10-23T02:01:42.603Z,18.93
2022-10-23T02:04:10.960Z,18.85
2022-10-23T02:06:37.480Z,18.90
2022-10-23T02:09:05.863Z,18.88
2022-10-23T02:11:37.501Z,18.94
2022-10-23T02:14:12.276Z,18.91
2022-10-23T02:16:42.257Z,18.95
2022-10-23T02:19:20.070Z,18.91
2022-10-23T02:22:07.858Z,18.89
2022-10-23T02:25:00.441Z,18.91
2022-10-23T02:27:40.127Z,18.88
2022-10-23T02:30:09.031Z,18.90
2022-10-23T02:32:36.909Z,18.83
2022-10-23T02:35:03.717Z,18.84
2022-10-23T02:37:30.325Z,18.80
2022-10-23T02:39:57.550Z,18.85
2022-10-23T02:42:47.283Z,18.86
2022-10-23T02:45:32.721Z,18.82
2022-10-23T02:48:23.531Z,18.85
2022-10-23T02:51:05.252Z,18.82
2022-10-23T02:54:08.823Z,18.82
2022-10-23T02:56:45.522Z,18.57
2022-10-23T02:59:21.757Z,18.83
2022-10-23T03:01:54.965Z,18.71
2022-10-23T03:04:23.916Z,18.74
2022-10-23T03:06:51.477Z,18.76
2022-10-23T03:09:18.256Z,18.73
2022-10-23T03:11:44.851Z,18.74
2022-10-23T03:14:12.820Z,18.64
2022-10-23T03:16:39.365Z,18.73
2022-10-23T03:19:05.963Z,18.73
2022-10-23T03:21:32.562Z,18.76
2022-10-23T03:23:59.109Z,18.71
2022-10-23T03:26:25.674Z,18.69
2022-10-23T03:28:52.205Z,18.73
2022-10-23T03:31:18.729Z,18.63
2022-10-23T03:33:45.285Z,18.71
2022-10-23T03:36:11.976Z,18.61
2022-10-23T03:38:38.575Z,18.67
2022-10-23T03:41:05.178Z,18.67
2022-10-23T03:43:31.711Z,18.65
2022-10-23T03:45:58.331Z,18.63
2022-10-23T03:48:25.106Z,18.68
2022-10-23T03:50:51.764Z,18.60
2022-10-23T03:53:18.714Z,18.60
2022-10-23T03:55:45.664Z,18.66
2022-10-23T03:58:12.372Z,18.64
2022-10-23T04:00:38.980Z,18.63
2022-10-23T04:03:05.554Z,18.69
2022-10-23T04:05:32.080Z,18.69
2022-10-23T04:07:58.656Z,18.63
2022-10-23T04:10:25.371Z,18.67
2022-10-23T04:12:52.098Z,18.67
2022-10-23T04:15:18.661Z,18.68
2022-10-23T04:17:45.294Z,18.61
2022-10-23T04:20:11.844Z,18.44
2022-10-23T04:22:38.409Z,18.58
2022-10-23T04:25:05.122Z,18.52
2022-10-23T04:27:31.719Z,18.60
2022-10-23T04:29:59.166Z,18.54
2022-10-23T04:32:26.301Z,18.53
2022-10-23T04:34:52.864Z,18.51
2022-10-23T04:37:19.720Z,18.45
2022-10-23T04:39:46.239Z,18.52
2022-10-23T04:42:12.869Z,18.59
2022-10-23T04:44:39.517Z,18.52
2022-10-23T04:47:06.042Z,18.54
2022-10-23T04:49:32.581Z,18.49
2022-10-23T04:51:59.161Z,18.43
2022-10-23T04:54:25.696Z,18.49
2022-10-23T04:56:52.237Z,18.45
2022-10-23T04:59:18.782Z,18.52
2022-10-23T05:01:45.359Z,18.51
2022-10-23T05:04:13.696Z,18.49
2022-10-23T05:06:40.242Z,18.56
2022-10-23T05:09:06.780Z,18.40
2022-10-23T05:11:33.337Z,18.51
2022-10-23T05:13:59.867Z,18.46
2022-10-23T05:16:37.212Z,18.48
2022-10-23T05:19:04.155Z,18.44
2022-10-23T05:21:32.112Z,18.41
2022-10-23T05:26:31.675Z,18.40
2022-10-23T05:28:58.339Z,18.47
2022-10-23T05:31:25.701Z,18.40
2022-10-23T05:33:54.636Z,18.39
2022-10-23T05:36:22.994Z,18.36
2022-10-23T05:38:49.539Z,18.35
2022-10-23T05:41:16.123Z,18.44
2022-10-23T05:43:42.707Z,18.45
2022-10-23T05:46:09.239Z,18.34
2022-10-23T05:48:35.831Z,18.36
2022-10-23T05:51:07.228Z,18.40
2022-10-23T05:53:36.111Z,18.40
2022-10-23T05:56:09.069Z,18.25
2022-10-23T05:58:35.698Z,18.37
2022-10-23T06:01:07.311Z,18.25
2022-10-23T06:03:33.993Z,18.26
2022-10-23T06:06:00.597Z,18.33
2022-10-23T06:08:27.115Z,18.36
2022-10-23T06:10:53.674Z,18.36
2022-10-23T06:13:20.196Z,18.29
2022-10-23T06:15:46.753Z,18.34
2022-10-23T06:18:13.395Z,18.37
2022-10-23T06:20:40.154Z,18.32
2022-10-23T06:23:07.268Z,18.32
2022-10-23T06:25:33.808Z,18.32
2022-10-23T06:28:00.398Z,18.25
2022-10-23T06:30:26.949Z,18.32
2022-10-23T06:32:53.877Z,18.23
2022-10-23T06:35:20.490Z,18.29
2022-10-23T06:37:47.037Z,18.25
2022-10-23T06:40:13.572Z,18.33
2022-10-23T06:42:40.248Z,18.23
2022-10-23T06:45:07.426Z,18.25
2022-10-23T06:47:34.176Z,18.17
2022-10-23T06:50:00.746Z,18.32
2022-10-23T06:52:47.783Z,18.22
2022-10-23T06:55:14.887Z,18.34
2022-10-23T06:57:42.758Z,18.09
2022-10-23T07:00:10.528Z,18.13
2022-10-23T07:02:37.153Z,18.24
2022-10-23T07:05:03.935Z,18.18
2022-10-23T07:07:31.058Z,18.18
2022-10-23T07:09:57.643Z,18.19
2022-10-23T07:12:24.224Z,18.16
2022-10-23T07:14:50.761Z,18.21
2022-10-23T07:17:17.309Z,18.20
2022-10-23T07:19:43.860Z,18.19
2022-10-23T07:22:13.286Z,18.22
2022-10-23T07:24:42.339Z,18.26
2022-10-23T07:27:08.884Z,18.28
2022-10-23T07:29:35.408Z,18.17
2022-10-23T07:32:02.025Z,18.24
2022-10-23T07:34:28.619Z,18.31
2022-10-23T07:36:56.854Z,18.33
2022-10-23T07:39:23.485Z,18.48
2022-10-23T07:41:50.116Z,18.62
2022-10-23T07:44:16.674Z,18.72
2022-10-23T07:46:43.203Z,18.81
2022-10-23T07:49:12.758Z,18.84
2022-10-23T07:51:39.323Z,18.88
2022-10-23T07:54:07.872Z,18.87
2022-10-23T07:56:34.416Z,18.92
2022-10-23T07:59:00.952Z,18.99
2022-10-23T08:01:32.272Z,19.04
2022-10-23T08:03:59.472Z,19.16
2022-10-23T08:06:26.057Z,19.14
2022-10-23T08:08:52.660Z,19.19
2022-10-23T08:11:25.740Z,19.15
2022-10-23T08:13:55.852Z,19.14
2022-10-23T08:16:23.241Z,19.28
2022-10-23T08:18:50.302Z,19.15
2022-10-23T08:21:17.568Z,19.23
2022-10-23T08:23:44.313Z,19.23
2022-10-23T08:26:11.249Z,19.29
2022-10-23T08:28:37.854Z,19.29
2022-10-23T08:31:13.384Z,19.42
2022-10-23T08:33:40.161Z,19.46
2022-10-23T08:36:19.859Z,19.40
2022-10-23T08:38:46.661Z,19.38
2022-10-23T08:41:42.912Z,19.46
2022-10-23T08:44:18.142Z,19.44
2022-10-23T08:46:50.973Z,19.42
2022-10-23T08:49:20.735Z,19.39
2022-10-23T08:51:49.930Z,19.45
2022-10-23T08:54:44.817Z,19.49
2022-10-23T08:57:15.429Z,19.49
2022-10-23T08:59:50.607Z,19.55
2022-10-23T09:02:44.389Z,19.39
2022-10-23T09:05:16.170Z,19.36
2022-10-23T09:08:04.991Z,19.20
2022-10-23T09:11:00.384Z,19.28
2022-10-23T09:13:36.059Z,19.34
2022-10-23T09:16:40.687Z,19.35
2022-10-23T09:19:17.825Z,19.40
2022-10-23T09:21:49.873Z,19.36
2022-10-23T09:24:18.487Z,19.37
2022-10-23T09:26:48.427Z,19.41
2022-10-23T09:29:30.067Z,19.50
2022-10-23T09:31:58.693Z,19.53
2022-10-23T09:34:27.621Z,19.60
2022-10-23T09:37:27.303Z,19.59
2022-10-23T09:40:14.802Z,19.56
2022-10-23T09:42:55.658Z,19.60
2022-10-23T09:45:35.756Z,19.64
2022-10-23T09:48:18.937Z,19.61
2022-10-23T09:50:50.689Z,19.59
2022-10-23T09:53:26.828Z,19.56
2022-10-23T09:55:55.908Z,19.59
2022-10-23T09:58:35.420Z,19.61
2022-10-23T10:01:02.846Z,19.63
2022-10-23T10:03:29.573Z,19.62
2022-10-23T10:05:58.798Z,19.65
2022-10-23T10:08:35.593Z,19.52
2022-10-23T10:11:03.220Z,19.56
2022-10-23T10:13:32.630Z,19.59
2022-10-23T10:16:37.713Z,19.69
2022-10-23T10:19:22.920Z,19.55
2022-10-23T10:22:31.484Z,19.63
2022-10-23T10:25:16.042Z,19.69
2022-10-23T10:28:14.993Z,19.56
2022-10-23T10:31:11.821Z,19.44
2022-10-23T10:33:57.011Z,19.49
2022-10-23T10:36:48.163Z,19.52
2022-10-23T10:39:52.006Z,19.61
2022-10-23T10:42:31.443Z,19.52
2022-10-23T10:45:16.686Z,19.61
2022-10-23T10:47:59.026Z,19.68
2022-10-23T10:50:25.526Z,19.61
2022-10-23T10:53:13.088Z,19.79
2022-10-23T10:55:41.843Z,19.81
2022-10-23T10:58:28.398Z,19.87
2022-10-23T11:00:58.784Z,19.87
2022-10-23T11:03:39.215Z,19.91
2022-10-23T11:06:13.655Z,19.94
2022-10-23T11:08:56.101Z,19.91
2022-10-23T11:11:31.540Z,19.91
2022-10-23T11:13:58.115Z,19.88
2022-10-23T11:16:28.132Z,19.86
2022-10-23T11:19:14.826Z,19.94
2022-10-23T11:21:47.993Z,19.96
2022-10-23T11:24:50.078Z,19.97
2022-10-23T11:27:29.750Z,19.95
2022-10-23T11:29:58.973Z,19.91
2022-10-23T11:32:36.515Z,19.94
2022-10-23T11:35:31.809Z,19.93
2022-10-23T11:38:13.521Z,19.93
2022-10-23T11:43:47.160Z,19.97
2022-10-23T11:46:25.559Z,19.91
2022-10-23T11:48:52.685Z,19.89
2022-10-23T11:51:35.760Z,19.95
2022-10-23T11:54:24.320Z,19.95
2022-10-23T11:56:53.644Z,19.95
2022-10-23T11:59:26.441Z,19.94
2022-10-23T12:01:54.012Z,19.92
2022-10-23T12:04:23.929Z,19.91
2022-10-23T12:07:02.017Z,19.87
2022-10-23T12:09:36.096Z,19.92
2022-10-23T12:12:16.397Z,19.88
2022-10-23T12:14:48.267Z,19.78
2022-10-23T12:17:36.016Z,19.85
2022-10-23T12:20:08.159Z,19.85
2022-10-23T12:23:00.463Z,19.83
2022-10-23T12:25:41.997Z,19.84
2022-10-23T12:28:33.989Z,19.82
2022-10-23T12:31:28.695Z,19.77
2022-10-23T12:34:03.973Z,19.81
2022-10-23T12:36:41.321Z,19.82
2022-10-23T12:39:30.601Z,19.79
2022-10-23T12:41:57.693Z,19.76
2022-10-23T12:44:27.090Z,19.80
2022-10-23T12:46:59.146Z,19.81
2022-10-23T12:49:27.980Z,19.79
2022-10-23T12:52:05.715Z,19.82
2022-10-23T12:54:33.878Z,19.78
2022-10-23T12:57:00.441Z,19.82
2022-10-23T12:59:38.024Z,19.80
2022-10-23T13:02:22.742Z,19.82
2022-10-23T13:04:50.609Z,19.85
2022-10-23T13:07:19.540Z,19.76
2022-10-23T13:09:46.281Z,19.77
2022-10-23T13:12:22.410Z,19.83
2022-10-23T13:15:01.170Z,19.82
2022-10-23T13:17:42.190Z,19.80
2022-10-23T13:20:17.946Z,19.85
2022-10-23T13:22:46.419Z,19.78
2022-10-23T13:25:25.097Z,19.81
2022-10-23T13:27:52.378Z,19.77
2022-10-23T13:30:30.825Z,19.84
2022-10-23T13:32:57.446Z,19.81
2022-10-23T13:35:24.430Z,19.83
2022-10-23T13:37:51.250Z,19.84
2022-10-23T13:40:26.455Z,19.82
2022-10-23T13:42:54.530Z,19.79
2022-10-23T13:45:25.660Z,19.80
2022-10-23T13:47:52.329Z,19.79
2022-10-23T13:50:19.324Z,19.78
2022-10-23T13:52:45.908Z,19.75
2022-10-23T13:57:44.614Z,19.77
2022-10-23T14:00:12.041Z,19.82
2022-10-23T14:02:38.719Z,19.81
2022-10-23T14:05:05.348Z,19.82
2022-10-23T14:07:31.888Z,19.80
2022-10-23T14:09:58.446Z,19.79
2022-10-23T14:12:24.976Z,19.81
2022-10-23T14:14:52.254Z,19.81
2022-10-23T14:17:20.002Z,19.81
2022-10-23T14:19:46.656Z,19.80
2022-10-23T14:22:13.206Z,19.83
2022-10-23T14:24:39.871Z,19.82
2022-10-23T14:27:06.421Z,19.77
2022-10-23T14:29:32.965Z,19.76
2022-10-23T14:34:26.217Z,19.79
2022-10-23T14:37:07.252Z,19.72
2022-10-23T14:39:34.250Z,19.72
2022-10-23T14:42:00.781Z,19.76
2022-10-23T14:44:27.468Z,19.70
2022-10-23T14:46:54.045Z,19.73
2022-10-23T14:49:20.560Z,19.75
2022-10-23T14:51:47.100Z,19.73
2022-10-23T14:54:13.696Z,19.77
2022-10-23T14:56:41.122Z,19.72
2022-10-23T14:59:08.514Z,19.72
2022-10-23T15:01:43.683Z,19.80
2022-10-23T15:04:16.947Z,19.75
2022-10-23T15:06:43.942Z,19.78
2022-10-23T15:09:10.497Z,19.83
2022-10-23T15:11:37.099Z,19.86
2022-10-23T15:14:03.657Z,19.87
2022-10-23T15:16:30.690Z,19.84
2022-10-23T15:18:57.257Z,19.92
2022-10-23T15:21:24.050Z,20.00
2022-10-23T15:23:50.719Z,19.99
2022-10-23T15:26:22.949Z,20.07
2022-10-23T15:28:57.599Z,20.09
2022-10-23T15:31:47.468Z,20.12
2022-10-23T15:34:19.218Z,20.11
2022-10-23T15:36:47.118Z,20.17
2022-10-23T15:39:16.672Z,20.11
2022-10-23T15:41:43.466Z,20.09
2022-10-23T15:44:13.657Z,20.15
2022-10-23T15:46:40.287Z,20.19
2022-10-23T15:49:08.456Z,20.01
2022-10-23T15:51:36.818Z,20.09
2022-10-23T15:54:05.630Z,20.14
2022-10-23T15:56:32.568Z,20.05
2022-10-23T15:58:59.159Z,20.10
2022-10-23T16:01:25.939Z,20.12
2022-10-23T16:03:52.613Z,20.11
2022-10-23T16:06:20.214Z,20.00
2022-10-23T16:08:46.876Z,19.91
2022-10-23T16:11:22.918Z,20.02
2022-10-23T16:13:49.768Z,19.89
2022-10-23T16:16:18.005Z,19.86
2022-10-23T16:18:44.830Z,19.91
2022-10-23T16:21:24.012Z,19.97
2022-10-23T16:23:51.536Z,19.86
2022-10-23T16:26:19.033Z,19.95
2022-10-23T16:28:47.302Z,19.96
2022-10-23T16:31:20.312Z,19.92
2022-10-23T16:33:48.087Z,19.93
2022-10-23T16:36:14.718Z,20.04
2022-10-23T16:38:41.240Z,20.00
2022-10-23T16:41:07.907Z,20.11
2022-10-23T16:43:34.456Z,20.07
2022-10-23T16:46:11.608Z,20.09
2022-10-23T16:48:38.268Z,20.07
2022-10-23T16:51:09.017Z,20.18
2022-10-23T16:53:35.948Z,20.04
2022-10-23T16:56:06.612Z,20.18
2022-10-23T16:58:33.536Z,20.12
2022-10-23T17:01:09.334Z,20.23
2022-10-23T17:03:40.088Z,20.19
2022-10-23T17:06:11.070Z,20.24
2022-10-23T17:08:38.315Z,20.09
2022-10-23T17:11:12.650Z,20.30
2022-10-23T17:13:44.136Z,20.15
2022-10-23T17:16:14.240Z,20.24
2022-10-23T17:18:43.863Z,20.19
2022-10-23T17:21:12.270Z,20.16
2022-10-23T17:23:38.864Z,20.06
2022-10-23T17:26:14.553Z,20.09
2022-10-23T17:28:42.400Z,20.03
2022-10-23T17:31:36.225Z,20.02
2022-10-23T17:34:06.953Z,19.99
2022-10-23T17:36:36.790Z,20.01
2022-10-23T17:39:05.730Z,19.97
2022-10-23T17:41:32.307Z,19.92
2022-10-23T17:43:59.493Z,19.93
2022-10-23T17:46:27.020Z,19.97
2022-10-23T17:48:53.578Z,19.97
2022-10-23T17:51:22.636Z,19.92
2022-10-23T17:53:51.165Z,19.95
2022-10-23T17:56:22.525Z,19.86
2022-10-23T17:58:50.364Z,19.91
2022-10-23T18:01:18.945Z,19.93
2022-10-23T18:03:45.551Z,19.90
2022-10-23T18:06:23.371Z,19.88
2022-10-23T18:08:53.130Z,19.89
2022-10-23T18:11:22.285Z,19.83
2022-10-23T18:13:49.777Z,19.87
2022-10-23T18:16:17.229Z,19.83
2022-10-23T18:18:48.277Z,19.88
2022-10-23T18:21:15.922Z,19.78
2022-10-23T18:23:42.841Z,19.85
2022-10-23T18:26:21.319Z,19.85
2022-10-23T18:28:50.241Z,19.87
2022-10-23T18:31:17.755Z,19.85
2022-10-23T18:33:44.842Z,19.86
2022-10-23T18:36:22.786Z,19.83
2022-10-23T18:38:49.707Z,19.82
2022-10-23T18:41:17.594Z,19.72
2022-10-23T18:43:44.801Z,19.77
2022-10-23T18:46:14.907Z,19.69
2022-10-23T18:48:43.388Z,19.80
2022-10-23T18:51:18.145Z,19.84
2022-10-23T18:53:47.408Z,19.75
2022-10-23T18:56:15.941Z,19.80
2022-10-23T18:58:42.520Z,19.74
2022-10-23T19:01:09.217Z,19.69
2022-10-23T19:03:35.875Z,19.74
2022-10-23T19:06:02.401Z,19.79
2022-10-23T19:08:29.047Z,19.65
2022-10-23T19:10:57.445Z,19.70
2022-10-23T19:13:23.977Z,19.77
2022-10-23T19:15:50.574Z,19.71
2022-10-23T19:18:17.163Z,19.75
2022-10-23T19:20:44.202Z,19.66
2022-10-23T19:23:12.844Z,19.69
2022-10-23T19:25:44.911Z,19.70
2022-10-23T19:28:11.456Z,19.76
2022-10-23T19:30:37.993Z,19.80
2022-10-23T19:33:04.564Z,19.69
2022-10-23T19:35:31.096Z,19.75
2022-10-23T19:37:57.648Z,19.70
2022-10-23T19:40:24.309Z,19.66
2022-10-23T19:42:50.905Z,19.66
2022-10-23T19:45:17.776Z,19.80
2022-10-23T19:47:46.096Z,19.76
2022-10-23T19:50:12.989Z,19.67
2022-10-23T19:52:39.596Z,19.62
2022-10-23T19:55:07.048Z,19.68
2022-10-23T19:57:37.175Z,19.69
2022-10-23T20:00:06.314Z,19.64
2022-10-23T20:05:08.468Z,19.67
2022-10-23T20:07:37.060Z,19.73
2022-10-23T20:10:06.819Z,19.69
2022-10-23T20:12:33.400Z,19.62
2022-10-23T20:15:00.179Z,19.63
2022-10-23T20:17:26.711Z,19.73
2022-10-23T20:19:53.320Z,19.62
2022-10-23T20:22:20.394Z,19.61
2022-10-23T20:24:46.987Z,19.63
2022-10-23T20:27:14.675Z,19.55
2022-10-23T20:29:42.333Z,19.62
2022-10-23T20:32:08.974Z,19.57
2022-10-23T20:34:35.578Z,19.69
2022-10-23T20:37:02.164Z,19.60
2022-10-23T20:39:29.830Z,19.64
2022-10-23T20:41:56.816Z,19.61
2022-10-23T20:44:24.000Z,19.64
2022-10-23T20:46:51.184Z,19.59
2022-10-23T20:49:18.831Z,19.60
2022-10-23T20:51:45.814Z,19.58
2022-10-23T20:54:12.356Z,19.64
2022-10-23T20:56:39.774Z,19.56
2022-10-23T20:59:09.811Z,19.58
2022-10-23T21:01:39.848Z,19.62
2022-10-23T21:04:06.525Z,19.59
2022-10-23T21:06:46.246Z,19.55
2022-10-23T21:09:22.810Z,19.56
2022-10-23T21:11:49.603Z,19.58
2022-10-23T21:14:16.209Z,19.55
2022-10-23T21:16:46.415Z,19.58
2022-10-23T21:19:14.408Z,19.56
2022-10-23T21:21:40.963Z,19.61
2022-10-23T21:24:10.131Z,19.55
2022-10-23T21:26:36.963Z,19.48
2022-10-23T21:29:17.834Z,19.52
2022-10-23T21:31:45.429Z,19.61
2022-10-23T21:34:12.168Z,19.62
2022-10-23T21:36:48.564Z,19.56
2022-10-23T21:39:25.732Z,19.59
2022-10-23T21:41:52.377Z,19.61
2022-10-23T21:44:18.966Z,19.56
2022-10-23T21:46:45.758Z,19.61
2022-10-23T21:49:12.417Z,19.61
2022-10-23T21:51:39.561Z,19.50
2022-10-23T21:54:08.312Z,19.58
2022-10-23T21:56:41.893Z,19.59
2022-10-23T21:59:13.326Z,19.59
2022-10-23T22:01:41.264Z,19.58
2022-10-23T22:04:08.017Z,19.56
2022-10-23T22:06:34.595Z,19.54
2022-10-23T22:09:01.163Z,19.55
2022-10-23T22:11:28.159Z,19.58
2022-10-23T22:13:55.116Z,19.58
2022-10-23T22:16:21.713Z,19.53
2022-10-23T22:18:48.483Z,19.53
2022-10-23T22:21:26.657Z,19.59
2022-10-23T22:23:58.370Z,19.53
2022-10-23T22:26:26.397Z,19.51
2022-10-23T22:28:55.032Z,19.51
2022-10-23T22:31:23.909Z,19.59
2022-10-23T22:33:51.593Z,19.53
2022-10-23T22:36:18.846Z,19.60
2022-10-23T22:38:45.708Z,19.54
2022-10-23T22:41:12.298Z,19.55
2022-10-23T22:43:39.071Z,19.52
2022-10-23T22:46:17.675Z,19.53
2022-10-23T22:48:44.792Z,19.57
2022-10-23T22:51:13.257Z,19.46
2022-10-23T22:53:40.228Z,19.49
2022-10-23T22:56:09.209Z,19.45
2022-10-23T22:58:36.366Z,19.55
2022-10-23T23:01:10.506Z,19.51
2022-10-23T23:03:37.268Z,19.42
2022-10-23T23:06:05.606Z,19.46
2022-10-23T23:08:32.936Z,19.51
2022-10-23T23:10:59.628Z,19.40
2022-10-23T23:13:27.947Z,19.44
2022-10-23T23:15:54.692Z,19.46
2022-10-23T23:18:21.575Z,19.45
2022-10-23T23:20:48.495Z,19.47
2022-10-23T23:23:15.330Z,19.46
2022-10-23T23:25:47.061Z,19.49
2022-10-23T23:28:15.521Z,19.48
2022-10-23T23:30:42.355Z,19.49
2022-10-23T23:33:10.455Z,19.42
2022-10-23T23:35:44.928Z,19.47
2022-10-23T23:38:12.778Z,19.44
2022-10-23T23:40:40.209Z,19.47
2022-10-23T23:43:07.026Z,19.43
2022-10-23T23:45:33.598Z,19.46
2022-10-23T23:48:00.139Z,19.45
2022-10-23T23:50:27.987Z,19.48
2022-10-23T23:52:54.670Z,19.46
2022-10-23T23:55:21.210Z,19.39
2022-10-23T23:57:47.976Z,19.42
